sensor_id;sensor_type;location;lat;lon;timestamp;temperature;humidity
43151;DHT22;28755;51.478;5.702;2024-02-21T00:00:15;9.70;99.90
43151;DHT22;28755;51.478;5.702;2024-02-21T00:02:41;9.80;99.90
43151;DHT22;28755;51.478;5.702;2024-02-21T00:05:06;9.80;99.90
43151;DHT22;28755;51.478;5.702;2024-02-21T00:07:32;9.80;99.90
43151;DHT22;28755;51.478;5.702;2024-02-21T00:09:58;9.70;99.90
43151;DHT22;28755;51.478;5.702;2024-02-21T00:12:23;9.80;99.90
43151;DHT22;28755;51.478;5.702;2024-02-21T00:14:49;9.90;99.90
43151;DHT22;28755;51.478;5.702;2024-02-21T00:17:15;9.80;99.90
43151;DHT22;28755;51.478;5.702;2024-02-21T00:19:40;9.80;99.90
43151;DHT22;28755;51.478;5.702;2024-02-21T00:22:06;9.80;99.90
43151;DHT22;28755;51.478;5.702;2024-02-21T00:24:32;9.80;99.90
43151;DHT22;28755;51.478;5.702;2024-02-21T00:26:57;9.70;99.90
43151;DHT22;28755;51.478;5.702;2024-02-21T00:29:23;9.80;99.90
43151;DHT22;28755;51.478;5.702;2024-02-21T00:31:49;9.80;99.90
43151;DHT22;28755;51.478;5.702;2024-02-21T00:34:15;9.80;99.90
43151;DHT22;28755;51.478;5.702;2024-02-21T00:36:40;10.00;99.90
43151;DHT22;28755;51.478;5.702;2024-02-21T00:39:06;9.80;99.90
43151;DHT22;28755;51.478;5.702;2024-02-21T00:41:32;9.80;99.90
43151;DHT22;28755;51.478;5.702;2024-02-21T00:43:58;9.80;99.90
43151;DHT22;28755;51.478;5.702;2024-02-21T00:46:24;9.80;99.90
43151;DHT22;28755;51.478;5.702;2024-02-21T00:48:49;9.80;99.90
43151;DHT22;28755;51.478;5.702;2024-02-21T00:51:16;9.90;99.90
43151;DHT22;28755;51.478;5.702;2024-02-21T00:53:42;9.80;99.90
43151;DHT22;28755;51.478;5.702;2024-02-21T00:56:08;9.90;99.90
43151;DHT22;28755;51.478;5.702;2024-02-21T00:58:33;9.80;99.90
43151;DHT22;28755;51.478;5.702;2024-02-21T01:01:00;9.70;99.90
43151;DHT22;28755;51.478;5.702;2024-02-21T01:03:26;9.70;99.90
43151;DHT22;28755;51.478;5.702;2024-02-21T01:05:52;9.60;99.90
43151;DHT22;28755;51.478;5.702;2024-02-21T01:08:17;9.60;99.90
43151;DHT22;28755;51.478;5.702;2024-02-21T01:10:43;9.60;99.90
43151;DHT22;28755;51.478;5.702;2024-02-21T01:13:09;9.60;99.90
43151;DHT22;28755;51.478;5.702;2024-02-21T01:15:34;9.50;99.90
43151;DHT22;28755;51.478;5.702;2024-02-21T01:18:01;9.40;99.90
43151;DHT22;28755;51.478;5.702;2024-02-21T01:20:26;9.40;99.90
43151;DHT22;28755;51.478;5.702;2024-02-21T01:22:52;9.40;99.90
43151;DHT22;28755;51.478;5.702;2024-02-21T01:25:17;9.40;99.90
43151;DHT22;28755;51.478;5.702;2024-02-21T01:27:43;9.40;99.90
43151;DHT22;28755;51.478;5.702;2024-02-21T01:30:09;9.50;99.90
43151;DHT22;28755;51.478;5.702;2024-02-21T01:32:36;9.50;99.90
43151;DHT22;28755;51.478;5.702;2024-02-21T01:35:02;9.50;99.90
43151;DHT22;28755;51.478;5.702;2024-02-21T01:37:27;9.40;99.90
43151;DHT22;28755;51.478;5.702;2024-02-21T01:39:53;9.40;99.90
43151;DHT22;28755;51.478;5.702;2024-02-21T01:42:19;9.40;99.90
43151;DHT22;28755;51.478;5.702;2024-02-21T01:44:44;9.50;99.90
43151;DHT22;28755;51.478;5.702;2024-02-21T01:47:11;9.40;99.90
43151;DHT22;28755;51.478;5.702;2024-02-21T01:49:40;9.40;99.90
43151;DHT22;28755;51.478;5.702;2024-02-21T01:52:06;9.40;99.90
43151;DHT22;28755;51.478;5.702;2024-02-21T01:54:32;9.40;99.90
43151;DHT22;28755;51.478;5.702;2024-02-21T01:56:58;9.40;99.90
43151;DHT22;28755;51.478;5.702;2024-02-21T01:59:24;9.40;99.90
43151;DHT22;28755;51.478;5.702;2024-02-21T02:01:51;9.30;99.90
43151;DHT22;28755;51.478;5.702;2024-02-21T02:04:19;9.40;99.90
43151;DHT22;28755;51.478;5.702;2024-02-21T02:06:45;9.50;99.90
43151;DHT22;28755;51.478;5.702;2024-02-21T02:09:11;9.40;99.90
43151;DHT22;28755;51.478;5.702;2024-02-21T02:11:37;9.50;99.90
43151;DHT22;28755;51.478;5.702;2024-02-21T02:14:03;9.40;99.90
43151;DHT22;28755;51.478;5.702;2024-02-21T02:16:28;9.50;99.90
43151;DHT22;28755;51.478;5.702;2024-02-21T02:18:54;9.40;99.90
43151;DHT22;28755;51.478;5.702;2024-02-21T02:21:39;9.40;99.90
43151;DHT22;28755;51.478;5.702;2024-02-21T02:24:05;9.50;99.90
43151;DHT22;28755;51.478;5.702;2024-02-21T02:26:31;9.50;99.90
43151;DHT22;28755;51.478;5.702;2024-02-21T02:28:57;9.60;99.90
43151;DHT22;28755;51.478;5.702;2024-02-21T02:31:22;9.50;99.90
43151;DHT22;28755;51.478;5.702;2024-02-21T02:33:48;9.50;99.90
43151;DHT22;28755;51.478;5.702;2024-02-21T02:36:13;9.50;99.90
43151;DHT22;28755;51.478;5.702;2024-02-21T02:38:39;9.40;99.90
43151;DHT22;28755;51.478;5.702;2024-02-21T02:41:05;9.50;99.90
43151;DHT22;28755;51.478;5.702;2024-02-21T02:43:30;9.50;99.90
43151;DHT22;28755;51.478;5.702;2024-02-21T02:45:57;9.50;99.90
43151;DHT22;28755;51.478;5.702;2024-02-21T02:48:22;9.50;99.90
43151;DHT22;28755;51.478;5.702;2024-02-21T02:50:48;9.50;99.90
43151;DHT22;28755;51.478;5.702;2024-02-21T02:53:15;9.40;99.90
43151;DHT22;28755;51.478;5.702;2024-02-21T02:55:40;9.60;99.90
43151;DHT22;28755;51.478;5.702;2024-02-21T02:58:06;9.60;99.90
43151;DHT22;28755;51.478;5.702;2024-02-21T03:00:31;9.40;99.90
43151;DHT22;28755;51.478;5.702;2024-02-21T03:03:01;9.50;99.90
43151;DHT22;28755;51.478;5.702;2024-02-21T03:05:29;9.50;99.90
43151;DHT22;28755;51.478;5.702;2024-02-21T03:07:55;9.50;99.90
43151;DHT22;28755;51.478;5.702;2024-02-21T03:10:21;9.50;99.90
43151;DHT22;28755;51.478;5.702;2024-02-21T03:12:47;9.60;99.90
43151;DHT22;28755;51.478;5.702;2024-02-21T03:15:13;9.50;99.90
43151;DHT22;28755;51.478;5.702;2024-02-21T03:17:39;9.50;99.90
43151;DHT22;28755;51.478;5.702;2024-02-21T03:20:06;9.50;99.90
43151;DHT22;28755;51.478;5.702;2024-02-21T03:22:35;9.40;99.90
43151;DHT22;28755;51.478;5.702;2024-02-21T03:25:01;9.40;99.90
43151;DHT22;28755;51.478;5.702;2024-02-21T03:27:27;9.40;99.90
43151;DHT22;28755;51.478;5.702;2024-02-21T03:29:53;9.40;99.90
43151;DHT22;28755;51.478;5.702;2024-02-21T03:32:18;9.40;99.90
43151;DHT22;28755;51.478;5.702;2024-02-21T03:34:44;9.40;99.90
43151;DHT22;28755;51.478;5.702;2024-02-21T03:37:09;9.40;99.90
43151;DHT22;28755;51.478;5.702;2024-02-21T03:39:35;9.40;99.90
43151;DHT22;28755;51.478;5.702;2024-02-21T03:42:01;9.30;99.90
43151;DHT22;28755;51.478;5.702;2024-02-21T03:44:30;9.30;99.90
43151;DHT22;28755;51.478;5.702;2024-02-21T03:46:56;9.40;99.90
43151;DHT22;28755;51.478;5.702;2024-02-21T03:49:22;9.30;99.90
43151;DHT22;28755;51.478;5.702;2024-02-21T03:51:48;9.40;99.90
43151;DHT22;28755;51.478;5.702;2024-02-21T03:54:13;9.30;99.90
43151;DHT22;28755;51.478;5.702;2024-02-21T03:56:39;9.30;99.90
43151;DHT22;28755;51.478;5.702;2024-02-21T03:59:06;9.40;99.90
43151;DHT22;28755;51.478;5.702;2024-02-21T04:01:31;9.30;99.90
43151;DHT22;28755;51.478;5.702;2024-02-21T04:03:57;9.30;99.90
43151;DHT22;28755;51.478;5.702;2024-02-21T04:06:23;9.40;99.90
43151;DHT22;28755;51.478;5.702;2024-02-21T04:08:48;9.30;99.90
43151;DHT22;28755;51.478;5.702;2024-02-21T04:11:14;9.30;99.90
43151;DHT22;28755;51.478;5.702;2024-02-21T04:13:39;9.30;99.90
43151;DHT22;28755;51.478;5.702;2024-02-21T04:16:05;9.30;99.90
43151;DHT22;28755;51.478;5.702;2024-02-21T04:18:31;9.30;99.90
43151;DHT22;28755;51.478;5.702;2024-02-21T04:20:57;9.30;99.90
43151;DHT22;28755;51.478;5.702;2024-02-21T04:23:22;9.30;99.90
43151;DHT22;28755;51.478;5.702;2024-02-21T04:25:48;9.30;99.90
43151;DHT22;28755;51.478;5.702;2024-02-21T04:28:13;9.40;99.90
43151;DHT22;28755;51.478;5.702;2024-02-21T04:30:39;9.30;99.90
43151;DHT22;28755;51.478;5.702;2024-02-21T04:33:04;9.30;99.90
43151;DHT22;28755;51.478;5.702;2024-02-21T04:35:30;9.30;99.90
43151;DHT22;28755;51.478;5.702;2024-02-21T04:37:56;9.30;99.90
43151;DHT22;28755;51.478;5.702;2024-02-21T04:40:21;9.30;99.90
43151;DHT22;28755;51.478;5.702;2024-02-21T04:42:47;9.30;99.90
43151;DHT22;28755;51.478;5.702;2024-02-21T04:45:12;9.20;99.90
43151;DHT22;28755;51.478;5.702;2024-02-21T04:47:38;9.30;99.90
43151;DHT22;28755;51.478;5.702;2024-02-21T04:50:04;9.20;99.90
43151;DHT22;28755;51.478;5.702;2024-02-21T04:52:29;9.20;99.90
43151;DHT22;28755;51.478;5.702;2024-02-21T04:54:55;9.30;99.90
43151;DHT22;28755;51.478;5.702;2024-02-21T04:57:21;9.20;99.90
43151;DHT22;28755;51.478;5.702;2024-02-21T04:59:47;9.20;99.90
43151;DHT22;28755;51.478;5.702;2024-02-21T05:02:15;9.30;99.90
43151;DHT22;28755;51.478;5.702;2024-02-21T05:04:42;9.20;99.90
43151;DHT22;28755;51.478;5.702;2024-02-21T05:07:08;9.20;99.90
43151;DHT22;28755;51.478;5.702;2024-02-21T05:09:34;9.30;99.90
43151;DHT22;28755;51.478;5.702;2024-02-21T05:11:59;9.20;99.90
43151;DHT22;28755;51.478;5.702;2024-02-21T05:14:26;9.30;99.90
43151;DHT22;28755;51.478;5.702;2024-02-21T05:16:52;9.20;99.90
43151;DHT22;28755;51.478;5.702;2024-02-21T05:19:18;9.20;99.90
43151;DHT22;28755;51.478;5.702;2024-02-21T05:21:43;9.20;99.90
43151;DHT22;28755;51.478;5.702;2024-02-21T05:24:09;9.20;99.90
43151;DHT22;28755;51.478;5.702;2024-02-21T05:26:35;9.10;99.90
43151;DHT22;28755;51.478;5.702;2024-02-21T05:29:00;9.30;99.90
43151;DHT22;28755;51.478;5.702;2024-02-21T05:31:26;9.30;99.90
43151;DHT22;28755;51.478;5.702;2024-02-21T05:33:59;9.20;99.90
43151;DHT22;28755;51.478;5.702;2024-02-21T05:36:24;9.30;99.90
43151;DHT22;28755;51.478;5.702;2024-02-21T05:38:50;9.10;99.90
43151;DHT22;28755;51.478;5.702;2024-02-21T05:41:15;9.20;99.90
43151;DHT22;28755;51.478;5.702;2024-02-21T05:43:41;9.20;99.90
43151;DHT22;28755;51.478;5.702;2024-02-21T05:46:06;9.20;99.90
43151;DHT22;28755;51.478;5.702;2024-02-21T05:48:32;9.30;99.90
43151;DHT22;28755;51.478;5.702;2024-02-21T05:50:58;9.30;99.90
43151;DHT22;28755;51.478;5.702;2024-02-21T05:53:23;9.20;99.90
43151;DHT22;28755;51.478;5.702;2024-02-21T05:55:49;9.20;99.90
43151;DHT22;28755;51.478;5.702;2024-02-21T05:58:14;9.20;99.90
43151;DHT22;28755;51.478;5.702;2024-02-21T06:00:40;9.20;99.90
43151;DHT22;28755;51.478;5.702;2024-02-21T06:03:05;9.20;99.90
43151;DHT22;28755;51.478;5.702;2024-02-21T06:05:36;9.30;99.90
43151;DHT22;28755;51.478;5.702;2024-02-21T06:08:02;9.30;99.90
43151;DHT22;28755;51.478;5.702;2024-02-21T06:10:28;9.20;99.90
43151;DHT22;28755;51.478;5.702;2024-02-21T06:12:54;9.20;99.90
43151;DHT22;28755;51.478;5.702;2024-02-21T06:15:19;9.30;99.90
43151;DHT22;28755;51.478;5.702;2024-02-21T06:17:45;9.20;99.90
43151;DHT22;28755;51.478;5.702;2024-02-21T06:20:11;9.20;99.90
43151;DHT22;28755;51.478;5.702;2024-02-21T06:22:37;9.30;99.90
43151;DHT22;28755;51.478;5.702;2024-02-21T06:25:02;9.30;99.90
43151;DHT22;28755;51.478;5.702;2024-02-21T06:27:28;9.30;99.90
43151;DHT22;28755;51.478;5.702;2024-02-21T06:29:54;9.30;99.90
43151;DHT22;28755;51.478;5.702;2024-02-21T06:32:19;9.20;99.90
43151;DHT22;28755;51.478;5.702;2024-02-21T06:34:45;9.30;99.90
43151;DHT22;28755;51.478;5.702;2024-02-21T06:37:10;9.30;99.90
43151;DHT22;28755;51.478;5.702;2024-02-21T06:39:37;9.40;99.90
43151;DHT22;28755;51.478;5.702;2024-02-21T06:42:03;9.30;99.90
43151;DHT22;28755;51.478;5.702;2024-02-21T06:44:29;9.30;99.90
43151;DHT22;28755;51.478;5.702;2024-02-21T06:46:55;9.30;99.90
43151;DHT22;28755;51.478;5.702;2024-02-21T06:49:20;9.20;99.90
43151;DHT22;28755;51.478;5.702;2024-02-21T06:51:46;9.20;99.90
43151;DHT22;28755;51.478;5.702;2024-02-21T06:54:11;9.30;99.90
43151;DHT22;28755;51.478;5.702;2024-02-21T06:56:37;9.30;99.90
43151;DHT22;28755;51.478;5.702;2024-02-21T06:59:03;9.20;99.90
43151;DHT22;28755;51.478;5.702;2024-02-21T07:01:29;9.20;99.90
43151;DHT22;28755;51.478;5.702;2024-02-21T07:03:55;9.20;99.90
43151;DHT22;28755;51.478;5.702;2024-02-21T07:06:21;9.20;99.90
43151;DHT22;28755;51.478;5.702;2024-02-21T07:08:47;9.20;99.90
43151;DHT22;28755;51.478;5.702;2024-02-21T07:11:13;9.30;99.90
43151;DHT22;28755;51.478;5.702;2024-02-21T07:13:38;9.30;99.90
43151;DHT22;28755;51.478;5.702;2024-02-21T07:16:04;9.30;99.90
43151;DHT22;28755;51.478;5.702;2024-02-21T07:18:30;9.30;99.90
43151;DHT22;28755;51.478;5.702;2024-02-21T07:20:55;9.30;99.90
43151;DHT22;28755;51.478;5.702;2024-02-21T07:23:22;9.30;99.90
43151;DHT22;28755;51.478;5.702;2024-02-21T07:25:47;9.30;99.90
43151;DHT22;28755;51.478;5.702;2024-02-21T07:28:13;9.30;99.90
43151;DHT22;28755;51.478;5.702;2024-02-21T07:30:39;9.30;99.90
43151;DHT22;28755;51.478;5.702;2024-02-21T07:33:05;9.30;99.90
43151;DHT22;28755;51.478;5.702;2024-02-21T07:35:32;9.30;99.90
43151;DHT22;28755;51.478;5.702;2024-02-21T07:37:58;9.30;99.90
43151;DHT22;28755;51.478;5.702;2024-02-21T07:40:23;9.40;99.90
43151;DHT22;28755;51.478;5.702;2024-02-21T07:42:49;9.30;99.90
43151;DHT22;28755;51.478;5.702;2024-02-21T07:45:15;9.30;99.90
43151;DHT22;28755;51.478;5.702;2024-02-21T07:47:40;9.40;99.90
43151;DHT22;28755;51.478;5.702;2024-02-21T07:50:06;9.40;99.90
43151;DHT22;28755;51.478;5.702;2024-02-21T07:52:35;9.40;99.90
43151;DHT22;28755;51.478;5.702;2024-02-21T07:55:01;9.30;99.90
43151;DHT22;28755;51.478;5.702;2024-02-21T07:57:26;9.40;99.90
43151;DHT22;28755;51.478;5.702;2024-02-21T07:59:52;9.50;99.90
43151;DHT22;28755;51.478;5.702;2024-02-21T08:02:17;9.50;99.90
43151;DHT22;28755;51.478;5.702;2024-02-21T08:04:43;9.50;99.90
43151;DHT22;28755;51.478;5.702;2024-02-21T08:07:09;9.50;99.90
43151;DHT22;28755;51.478;5.702;2024-02-21T08:09:35;9.70;99.90
43151;DHT22;28755;51.478;5.702;2024-02-21T08:12:04;9.50;99.90
43151;DHT22;28755;51.478;5.702;2024-02-21T08:14:29;9.50;99.90
43151;DHT22;28755;51.478;5.702;2024-02-21T08:16:55;9.50;99.90
43151;DHT22;28755;51.478;5.702;2024-02-21T08:19:21;9.50;99.90
43151;DHT22;28755;51.478;5.702;2024-02-21T08:21:48;9.50;99.90
43151;DHT22;28755;51.478;5.702;2024-02-21T08:24:17;9.70;99.90
43151;DHT22;28755;51.478;5.702;2024-02-21T08:26:45;9.50;99.90
43151;DHT22;28755;51.478;5.702;2024-02-21T08:29:14;9.60;99.90
43151;DHT22;28755;51.478;5.702;2024-02-21T08:31:39;9.60;99.90
43151;DHT22;28755;51.478;5.702;2024-02-21T08:34:05;9.60;99.90
43151;DHT22;28755;51.478;5.702;2024-02-21T08:36:31;9.60;99.90
43151;DHT22;28755;51.478;5.702;2024-02-21T08:38:57;9.70;99.90
43151;DHT22;28755;51.478;5.702;2024-02-21T08:41:24;9.70;99.90
43151;DHT22;28755;51.478;5.702;2024-02-21T08:43:53;9.80;99.90
43151;DHT22;28755;51.478;5.702;2024-02-21T08:46:20;9.70;99.90
43151;DHT22;28755;51.478;5.702;2024-02-21T08:48:46;9.80;99.90
43151;DHT22;28755;51.478;5.702;2024-02-21T08:51:15;9.80;99.90
43151;DHT22;28755;51.478;5.702;2024-02-21T08:53:41;9.60;99.90
43151;DHT22;28755;51.478;5.702;2024-02-21T08:56:07;9.70;99.90
43151;DHT22;28755;51.478;5.702;2024-02-21T08:58:33;9.70;99.90
43151;DHT22;28755;51.478;5.702;2024-02-21T09:00:59;9.70;99.90
43151;DHT22;28755;51.478;5.702;2024-02-21T09:03:24;9.70;99.90
43151;DHT22;28755;51.478;5.702;2024-02-21T09:05:50;9.70;99.90
43151;DHT22;28755;51.478;5.702;2024-02-21T09:08:16;9.60;99.90
43151;DHT22;28755;51.478;5.702;2024-02-21T09:10:41;9.60;99.90
43151;DHT22;28755;51.478;5.702;2024-02-21T09:13:07;9.50;99.90
43151;DHT22;28755;51.478;5.702;2024-02-21T09:15:34;9.40;99.90
43151;DHT22;28755;51.478;5.702;2024-02-21T09:17:59;9.30;99.90
43151;DHT22;28755;51.478;5.702;2024-02-21T09:20:25;9.30;99.90
43151;DHT22;28755;51.478;5.702;2024-02-21T09:22:51;9.20;99.90
43151;DHT22;28755;51.478;5.702;2024-02-21T09:25:17;9.10;99.90
43151;DHT22;28755;51.478;5.702;2024-02-21T09:27:44;9.10;99.90
43151;DHT22;28755;51.478;5.702;2024-02-21T09:30:10;9.20;99.90
43151;DHT22;28755;51.478;5.702;2024-02-21T09:32:36;9.20;99.90
43151;DHT22;28755;51.478;5.702;2024-02-21T09:35:02;9.20;99.90
43151;DHT22;28755;51.478;5.702;2024-02-21T09:37:27;9.20;99.90
43151;DHT22;28755;51.478;5.702;2024-02-21T09:39:53;9.30;99.90
43151;DHT22;28755;51.478;5.702;2024-02-21T09:42:22;9.30;99.90
43151;DHT22;28755;51.478;5.702;2024-02-21T09:44:51;9.40;99.90
43151;DHT22;28755;51.478;5.702;2024-02-21T09:47:24;9.40;99.90
43151;DHT22;28755;51.478;5.702;2024-02-21T09:49:50;9.60;99.90
43151;DHT22;28755;51.478;5.702;2024-02-21T09:52:17;9.60;99.90
43151;DHT22;28755;51.478;5.702;2024-02-21T09:54:46;9.50;99.90
43151;DHT22;28755;51.478;5.702;2024-02-21T09:57:14;9.50;99.90
43151;DHT22;28755;51.478;5.702;2024-02-21T09:59:40;9.60;99.90
43151;DHT22;28755;51.478;5.702;2024-02-21T10:02:09;9.60;99.90
43151;DHT22;28755;51.478;5.702;2024-02-21T10:04:36;9.60;99.90
43151;DHT22;28755;51.478;5.702;2024-02-21T10:07:02;9.70;99.90
43151;DHT22;28755;51.478;5.702;2024-02-21T10:09:29;9.70;99.90
43151;DHT22;28755;51.478;5.702;2024-02-21T10:11:56;9.80;99.90
43151;DHT22;28755;51.478;5.702;2024-02-21T10:14:22;9.80;99.90
43151;DHT22;28755;51.478;5.702;2024-02-21T10:16:48;9.80;99.90
43151;DHT22;28755;51.478;5.702;2024-02-21T10:19:18;9.90;99.90
43151;DHT22;28755;51.478;5.702;2024-02-21T10:21:45;10.10;99.90
43151;DHT22;28755;51.478;5.702;2024-02-21T10:24:12;10.10;99.90
43151;DHT22;28755;51.478;5.702;2024-02-21T10:26:37;10.10;99.90
43151;DHT22;28755;51.478;5.702;2024-02-21T10:29:03;10.20;99.90
43151;DHT22;28755;51.478;5.702;2024-02-21T10:31:29;10.40;99.90
43151;DHT22;28755;51.478;5.702;2024-02-21T10:33:59;10.40;99.90
43151;DHT22;28755;51.478;5.702;2024-02-21T10:36:25;10.50;99.90
43151;DHT22;28755;51.478;5.702;2024-02-21T10:38:52;10.40;99.90
43151;DHT22;28755;51.478;5.702;2024-02-21T10:41:19;10.50;99.90
43151;DHT22;28755;51.478;5.702;2024-02-21T10:43:54;10.60;99.90
43151;DHT22;28755;51.478;5.702;2024-02-21T10:46:23;10.60;99.90
43151;DHT22;28755;51.478;5.702;2024-02-21T10:49:04;10.50;99.90
43151;DHT22;28755;51.478;5.702;2024-02-21T10:51:33;10.60;99.90
43151;DHT22;28755;51.478;5.702;2024-02-21T10:56:46;10.60;99.90
43151;DHT22;28755;51.478;5.702;2024-02-21T10:59:15;10.60;99.90
43151;DHT22;28755;51.478;5.702;2024-02-21T11:01:41;10.70;99.90
43151;DHT22;28755;51.478;5.702;2024-02-21T11:04:11;10.90;99.90
43151;DHT22;28755;51.478;5.702;2024-02-21T11:06:38;10.90;99.90
43151;DHT22;28755;51.478;5.702;2024-02-21T11:09:07;10.90;99.90
43151;DHT22;28755;51.478;5.702;2024-02-21T11:11:42;10.90;99.90
43151;DHT22;28755;51.478;5.702;2024-02-21T11:14:18;10.80;99.90
43151;DHT22;28755;51.478;5.702;2024-02-21T11:16:45;10.90;99.90
43151;DHT22;28755;51.478;5.702;2024-02-21T11:19:27;10.90;99.90
43151;DHT22;28755;51.478;5.702;2024-02-21T11:21:54;10.90;99.90
43151;DHT22;28755;51.478;5.702;2024-02-21T11:24:27;11.00;99.90
43151;DHT22;28755;51.478;5.702;2024-02-21T11:26:54;10.80;99.90
43151;DHT22;28755;51.478;5.702;2024-02-21T11:29:24;10.90;99.90
43151;DHT22;28755;51.478;5.702;2024-02-21T11:31:52;10.90;99.90
43151;DHT22;28755;51.478;5.702;2024-02-21T11:34:19;10.90;99.90
43151;DHT22;28755;51.478;5.702;2024-02-21T11:36:53;11.00;99.90
43151;DHT22;28755;51.478;5.702;2024-02-21T11:39:25;11.10;99.90
43151;DHT22;28755;51.478;5.702;2024-02-21T11:42:08;11.10;99.90
43151;DHT22;28755;51.478;5.702;2024-02-21T11:44:35;11.30;99.90
43151;DHT22;28755;51.478;5.702;2024-02-21T11:47:03;11.40;99.90
43151;DHT22;28755;51.478;5.702;2024-02-21T11:49:29;11.50;99.90
43151;DHT22;28755;51.478;5.702;2024-02-21T11:52:02;12.10;99.90
43151;DHT22;28755;51.478;5.702;2024-02-21T11:54:30;12.50;99.90
43151;DHT22;28755;51.478;5.702;2024-02-21T11:56:56;12.80;99.90
43151;DHT22;28755;51.478;5.702;2024-02-21T11:59:22;13.10;99.90
43151;DHT22;28755;51.478;5.702;2024-02-21T12:01:48;12.90;99.90
43151;DHT22;28755;51.478;5.702;2024-02-21T12:04:15;12.50;99.90
43151;DHT22;28755;51.478;5.702;2024-02-21T12:06:43;12.10;99.90
43151;DHT22;28755;51.478;5.702;2024-02-21T12:09:09;11.90;99.90
43151;DHT22;28755;51.478;5.702;2024-02-21T12:11:35;11.90;99.90
43151;DHT22;28755;51.478;5.702;2024-02-21T12:14:01;11.80;99.90
43151;DHT22;28755;51.478;5.702;2024-02-21T12:16:29;11.80;99.90
43151;DHT22;28755;51.478;5.702;2024-02-21T12:19:02;11.90;99.90
43151;DHT22;28755;51.478;5.702;2024-02-21T12:21:33;12.30;99.90
43151;DHT22;28755;51.478;5.702;2024-02-21T12:24:22;12.80;99.90
43151;DHT22;28755;51.478;5.702;2024-02-21T12:26:49;13.20;99.90
43151;DHT22;28755;51.478;5.702;2024-02-21T12:29:14;12.90;99.90
43151;DHT22;28755;51.478;5.702;2024-02-21T12:31:40;12.80;99.90
43151;DHT22;28755;51.478;5.702;2024-02-21T12:34:06;12.40;99.90
43151;DHT22;28755;51.478;5.702;2024-02-21T12:36:32;12.60;99.90
43151;DHT22;28755;51.478;5.702;2024-02-21T12:38:58;12.40;99.90
43151;DHT22;28755;51.478;5.702;2024-02-21T12:41:26;12.40;99.90
43151;DHT22;28755;51.478;5.702;2024-02-21T12:43:53;12.30;99.90
43151;DHT22;28755;51.478;5.702;2024-02-21T12:46:18;12.30;99.90
43151;DHT22;28755;51.478;5.702;2024-02-21T12:48:44;12.40;99.90
43151;DHT22;28755;51.478;5.702;2024-02-21T12:51:10;12.50;99.90
43151;DHT22;28755;51.478;5.702;2024-02-21T12:53:35;12.60;99.90
43151;DHT22;28755;51.478;5.702;2024-02-21T12:56:01;12.50;99.90
43151;DHT22;28755;51.478;5.702;2024-02-21T12:58:27;12.50;99.90
43151;DHT22;28755;51.478;5.702;2024-02-21T13:00:57;12.30;99.90
43151;DHT22;28755;51.478;5.702;2024-02-21T13:03:22;12.00;99.90
43151;DHT22;28755;51.478;5.702;2024-02-21T13:05:48;12.30;99.90
43151;DHT22;28755;51.478;5.702;2024-02-21T13:08:13;12.20;99.90
43151;DHT22;28755;51.478;5.702;2024-02-21T13:10:39;12.10;99.90
43151;DHT22;28755;51.478;5.702;2024-02-21T13:13:05;12.10;99.90
43151;DHT22;28755;51.478;5.702;2024-02-21T13:15:30;12.10;99.90
43151;DHT22;28755;51.478;5.702;2024-02-21T13:17:57;12.20;99.90
43151;DHT22;28755;51.478;5.702;2024-02-21T13:20:25;12.10;99.90
43151;DHT22;28755;51.478;5.702;2024-02-21T13:22:52;12.10;99.90
43151;DHT22;28755;51.478;5.702;2024-02-21T13:25:18;12.10;99.90
43151;DHT22;28755;51.478;5.702;2024-02-21T13:27:46;12.20;99.90
43151;DHT22;28755;51.478;5.702;2024-02-21T13:30:12;12.10;99.90
43151;DHT22;28755;51.478;5.702;2024-02-21T13:32:41;11.90;99.90
43151;DHT22;28755;51.478;5.702;2024-02-21T13:35:08;12.00;99.90
43151;DHT22;28755;51.478;5.702;2024-02-21T13:37:34;11.90;99.90
43151;DHT22;28755;51.478;5.702;2024-02-21T13:40:00;12.00;99.90
43151;DHT22;28755;51.478;5.702;2024-02-21T13:42:25;12.00;99.90
43151;DHT22;28755;51.478;5.702;2024-02-21T13:44:53;12.10;99.90
43151;DHT22;28755;51.478;5.702;2024-02-21T13:47:18;12.00;99.90
43151;DHT22;28755;51.478;5.702;2024-02-21T13:49:44;12.00;99.90
43151;DHT22;28755;51.478;5.702;2024-02-21T13:52:10;11.80;99.90
43151;DHT22;28755;51.478;5.702;2024-02-21T13:54:35;11.70;99.90
43151;DHT22;28755;51.478;5.702;2024-02-21T13:57:01;11.80;99.90
43151;DHT22;28755;51.478;5.702;2024-02-21T13:59:28;11.70;99.90
43151;DHT22;28755;51.478;5.702;2024-02-21T14:01:53;11.70;99.90
43151;DHT22;28755;51.478;5.702;2024-02-21T14:04:19;11.60;99.90
43151;DHT22;28755;51.478;5.702;2024-02-21T14:06:45;11.70;99.90
43151;DHT22;28755;51.478;5.702;2024-02-21T14:09:12;11.70;99.90
43151;DHT22;28755;51.478;5.702;2024-02-21T14:11:37;11.60;99.90
43151;DHT22;28755;51.478;5.702;2024-02-21T14:14:04;11.60;99.90
43151;DHT22;28755;51.478;5.702;2024-02-21T14:16:30;11.60;99.90
43151;DHT22;28755;51.478;5.702;2024-02-21T14:18:56;11.60;99.90
43151;DHT22;28755;51.478;5.702;2024-02-21T14:21:21;11.60;99.90
43151;DHT22;28755;51.478;5.702;2024-02-21T14:23:47;11.50;99.90
43151;DHT22;28755;51.478;5.702;2024-02-21T14:26:13;11.50;99.90
43151;DHT22;28755;51.478;5.702;2024-02-21T14:28:40;11.50;99.90
43151;DHT22;28755;51.478;5.702;2024-02-21T14:31:06;11.70;99.90
43151;DHT22;28755;51.478;5.702;2024-02-21T14:33:35;11.60;99.90
43151;DHT22;28755;51.478;5.702;2024-02-21T14:36:00;11.60;99.90
43151;DHT22;28755;51.478;5.702;2024-02-21T14:38:26;11.60;99.90
43151;DHT22;28755;51.478;5.702;2024-02-21T14:40:53;11.60;99.90
43151;DHT22;28755;51.478;5.702;2024-02-21T14:43:18;11.50;99.90
43151;DHT22;28755;51.478;5.702;2024-02-21T14:45:47;11.60;99.90
43151;DHT22;28755;51.478;5.702;2024-02-21T14:48:13;11.60;99.90
43151;DHT22;28755;51.478;5.702;2024-02-21T14:50:39;11.60;99.90
43151;DHT22;28755;51.478;5.702;2024-02-21T14:53:04;11.60;99.90
43151;DHT22;28755;51.478;5.702;2024-02-21T14:55:30;11.50;99.90
43151;DHT22;28755;51.478;5.702;2024-02-21T14:57:56;11.50;99.90
43151;DHT22;28755;51.478;5.702;2024-02-21T15:00:21;11.70;99.90
43151;DHT22;28755;51.478;5.702;2024-02-21T15:02:55;11.50;99.90
43151;DHT22;28755;51.478;5.702;2024-02-21T15:05:21;11.50;99.90
43151;DHT22;28755;51.478;5.702;2024-02-21T15:07:46;11.40;99.90
43151;DHT22;28755;51.478;5.702;2024-02-21T15:10:12;11.40;99.90
43151;DHT22;28755;51.478;5.702;2024-02-21T15:12:37;11.30;99.90
43151;DHT22;28755;51.478;5.702;2024-02-21T15:15:03;11.30;99.90
43151;DHT22;28755;51.478;5.702;2024-02-21T15:17:29;11.20;99.90
43151;DHT22;28755;51.478;5.702;2024-02-21T15:19:55;11.20;99.90
43151;DHT22;28755;51.478;5.702;2024-02-21T15:22:21;11.10;99.90
43151;DHT22;28755;51.478;5.702;2024-02-21T15:24:48;11.10;99.90
43151;DHT22;28755;51.478;5.702;2024-02-21T15:27:14;11.10;99.90
43151;DHT22;28755;51.478;5.702;2024-02-21T15:29:40;11.10;99.90
43151;DHT22;28755;51.478;5.702;2024-02-21T15:32:06;11.00;99.90
43151;DHT22;28755;51.478;5.702;2024-02-21T15:34:32;10.90;99.90
43151;DHT22;28755;51.478;5.702;2024-02-21T15:36:57;10.80;99.90